createdAt,value
2022-09-12T00:01:26.557Z,96403.97
2022-09-12T00:03:55.866Z,96408.44
2022-09-12T00:06:26.663Z,96404.09
2022-09-12T00:08:56.502Z,96398.09
2022-09-12T00:11:24.629Z,96392.34
2022-09-12T00:13:57.109Z,96390.88
2022-09-12T00:16:26.554Z,96397.59
2022-09-12T00:18:54.665Z,96399.81
2022-09-12T00:21:23.458Z,96395.16
2022-09-12T00:23:51.827Z,96396.94
2022-09-12T00:26:20.506Z,96394.38
2022-09-12T00:28:49.166Z,96387.50
2022-09-12T00:31:20.252Z,96387.97
2022-09-12T00:33:48.042Z,96396.25
2022-09-12T00:36:18.058Z,96379.53
2022-09-12T00:38:47.239Z,96386.06
2022-09-12T00:41:19.944Z,96381.59
2022-09-12T00:43:49.709Z,96383.53
2022-09-12T00:46:28.575Z,96379.06
2022-09-12T00:49:00.459Z,96380.50
2022-09-12T00:51:30.512Z,96373.31
2022-09-12T00:54:00.463Z,96374.94
2022-09-12T00:56:29.053Z,96376.97
2022-09-12T00:59:03.331Z,96379.22
2022-09-12T01:01:33.002Z,96378.41
2022-09-12T01:04:01.556Z,96363.41
2022-09-12T01:06:35.214Z,96358.31
2022-09-12T01:09:04.895Z,96370.06
2022-09-12T01:11:33.553Z,96357.34
2022-09-12T01:14:01.290Z,96358.59
2022-09-12T01:16:29.851Z,96357.34
2022-09-12T01:19:20.186Z,96353.50
2022-09-12T01:22:05.080Z,96347.59
2022-09-12T01:24:52.729Z,96348.88
2022-09-12T01:27:33.302Z,96350.00
2022-09-12T01:30:24.548Z,96338.53
2022-09-12T01:33:18.308Z,96333.63
2022-09-12T01:35:54.779Z,96343.81
2022-09-12T01:38:29.379Z,96330.59
2022-09-12T01:41:03.294Z,96344.13
2022-09-12T01:43:37.748Z,96342.19
2022-09-12T01:46:14.217Z,96330.41
2022-09-12T01:48:49.082Z,96330.22
2022-09-12T01:51:23.320Z,96329.06
2022-09-12T01:53:55.623Z,96326.34
2022-09-12T01:56:26.583Z,96318.22
2022-09-12T01:59:00.365Z,96316.28
2022-09-12T02:01:30.972Z,96317.53
2022-09-12T02:04:08.950Z,96313.25
2022-09-12T02:06:41.222Z,96309.41
2022-09-12T02:09:12.454Z,96316.44
2022-09-12T02:11:44.725Z,96316.91
2022-09-12T02:14:16.393Z,96315.81
2022-09-12T02:16:47.951Z,96310.56
2022-09-12T02:19:20.536Z,96310.25
2022-09-12T02:21:53.211Z,96307.06
2022-09-12T02:24:24.100Z,96302.13
2022-09-12T02:26:55.947Z,96310.41
2022-09-12T02:29:23.795Z,96304.38
2022-09-12T02:31:58.531Z,96301.19
2022-09-12T02:34:38.920Z,96302.50
2022-09-12T02:37:11.478Z,96301.84
2022-09-12T02:39:42.151Z,96305.13
2022-09-12T02:42:13.431Z,96293.84
2022-09-12T02:44:42.276Z,96300.69
2022-09-12T02:47:15.331Z,96295.28
2022-09-12T02:49:44.553Z,96298.59
2022-09-12T02:52:12.396Z,96300.66
2022-09-12T02:54:40.599Z,96299.25
2022-09-12T02:57:21.907Z,96298.59
2022-09-12T02:59:54.451Z,96301.47
2022-09-12T03:02:31.274Z,96296.03
2022-09-12T03:05:23.722Z,96287.78
2022-09-12T03:08:20.664Z,96285.06
2022-09-12T03:11:01.856Z,96283.31
2022-09-12T03:13:38.907Z,96275.19
2022-09-12T03:16:18.243Z,96280.63
2022-09-12T03:18:56.794Z,96283.94
2022-09-12T03:21:31.327Z,96285.03
2022-09-12T03:24:12.384Z,96283.56
2022-09-12T03:26:45.578Z,96276.25
2022-09-12T03:29:15.645Z,96276.53
2022-09-12T03:31:51.677Z,96282.25
2022-09-12T03:34:19.926Z,96279.88
2022-09-12T03:36:49.807Z,96284.00
2022-09-12T03:39:17.979Z,96282.41
2022-09-12T03:41:45.943Z,96286.22
2022-09-12T03:44:13.642Z,96291.31
2022-09-12T03:46:41.451Z,96292.41
2022-09-12T03:49:09.154Z,96294.31
2022-09-12T03:51:36.826Z,96286.22
2022-09-12T03:54:06.055Z,96285.09
2022-09-12T03:56:34.515Z,96289.91
2022-09-12T03:59:02.241Z,96286.06
2022-09-12T04:01:30.031Z,96285.28
2022-09-12T04:03:57.748Z,96286.06
2022-09-12T04:06:25.482Z,96289.41
2022-09-12T04:08:54.690Z,96291.31
2022-09-12T04:11:24.146Z,96292.09
2022-09-12T04:13:52.130Z,96286.00
2022-09-12T04:16:20.466Z,96284.50
2022-09-12T04:18:48.631Z,96285.56
2022-09-12T04:21:19.258Z,96287.06
2022-09-12T04:23:46.993Z,96284.97
2022-09-12T04:26:16.633Z,96283.66
2022-09-12T04:28:46.713Z,96288.41
2022-09-12T04:31:17.658Z,96284.22
2022-09-12T04:33:46.163Z,96285.63
2022-09-12T04:36:16.642Z,96283.72
2022-09-12T04:38:45.752Z,96281.84
2022-09-12T04:41:14.158Z,96286.13
2022-09-12T04:43:42.382Z,96275.63
2022-09-12T04:46:13.197Z,96280.41
2022-09-12T04:48:40.927Z,96280.50
2022-09-12T04:51:10.505Z,96284.66
2022-09-12T04:53:39.015Z,96277.47
2022-09-12T04:56:08.444Z,96284.78
2022-09-12T04:58:37.093Z,96280.31
2022-09-12T05:01:06.341Z,96285.91
2022-09-12T05:03:38.867Z,96284.16
2022-09-12T05:06:08.977Z,96285.44
2022-09-12T05:08:37.083Z,96285.94
2022-09-12T05:11:05.986Z,96289.63
2022-09-12T05:13:34.713Z,96296.94
2022-09-12T05:16:05.248Z,96296.28
2022-09-12T05:18:35.647Z,96297.41
2022-09-12T05:21:05.336Z,96296.00
2022-09-12T05:23:34.747Z,96299.97
2022-09-12T05:26:03.298Z,96298.56
2022-09-12T05:28:34.500Z,96298.56
2022-09-12T05:31:03.883Z,96305.38
2022-09-12T05:33:32.166Z,96300.63
2022-09-12T05:36:01.671Z,96301.13
2022-09-12T05:38:29.561Z,96300.66
2022-09-12T05:41:06.187Z,96303.88
2022-09-12T05:43:34.415Z,96310.69
2022-09-12T05:46:03.264Z,96304.94
2022-09-12T05:48:32.656Z,96303.53
2022-09-12T05:51:02.908Z,96305.31
2022-09-12T05:53:31.484Z,96310.41
2022-09-12T05:56:07.131Z,96316.78
2022-09-12T05:58:35.458Z,96315.97
2022-09-12T06:01:05.533Z,96321.72
2022-09-12T06:03:36.348Z,96323.31
2022-09-12T06:06:14.776Z,96321.22
2022-09-12T06:08:44.201Z,96319.47
2022-09-12T06:11:15.957Z,96308.53
2022-09-12T06:13:44.796Z,96313.50
2022-09-12T06:16:14.776Z,96309.84
2022-09-12T06:18:48.521Z,96309.03
2022-09-12T06:21:17.884Z,96305.09
2022-09-12T06:23:47.047Z,96311.16
2022-09-12T06:26:16.804Z,96313.22
2022-09-12T06:28:46.234Z,96309.72
2022-09-12T06:31:16.399Z,96310.22
2022-09-12T06:33:46.151Z,96310.06
2022-09-12T06:36:16.002Z,96312.28
2022-09-12T06:38:46.208Z,96302.59
2022-09-12T06:41:15.114Z,96298.59
2022-09-12T06:43:43.788Z,96302.44
2022-09-12T06:46:13.095Z,96305.13
2022-09-12T06:48:42.174Z,96305.13
2022-09-12T06:51:13.312Z,96306.25
2022-09-12T06:53:42.263Z,96306.59
2022-09-12T06:56:13.480Z,96309.28
2022-09-12T06:58:41.750Z,96309.56
2022-09-12T07:01:12.295Z,96308.44
2022-09-12T07:03:40.619Z,96307.28
2022-09-12T07:06:10.528Z,96306.03
2022-09-12T07:08:39.180Z,96307.75
2022-09-12T07:11:13.483Z,96310.41
2022-09-12T07:13:43.365Z,96314.75
2022-09-12T07:16:14.829Z,96310.72
2022-09-12T07:18:46.195Z,96311.50
2022-09-12T07:21:15.700Z,96299.16
2022-09-12T07:23:43.829Z,96308.03
2022-09-12T07:26:14.785Z,96312.00
2022-09-12T07:28:42.864Z,96306.84
2022-09-12T07:31:12.641Z,96308.72
2022-09-12T07:33:41.742Z,96315.53
2022-09-12T07:36:12.586Z,96315.19
2022-09-12T07:38:40.637Z,96309.03
2022-09-12T07:41:13.776Z,96308.00
2022-09-12T07:43:42.088Z,96318.25
2022-09-12T07:46:10.404Z,96310.97
2022-09-12T07:48:38.563Z,96317.47
2022-09-12T07:51:08.436Z,96317.03
2022-09-12T07:53:38.246Z,96315.97
2022-09-12T07:56:06.957Z,96315.19
2022-09-12T07:58:38.883Z,96310.25
2022-09-12T08:01:08.751Z,96312.34
2022-09-12T08:03:36.608Z,96307.84
2022-09-12T08:06:05.837Z,96310.09
2022-09-12T08:08:34.028Z,96315.09
2022-09-12T08:11:02.999Z,96318.19
2022-09-12T08:13:31.500Z,96318.28
2022-09-12T08:16:02.119Z,96318.03
2022-09-12T08:18:32.632Z,96332.09
2022-09-12T08:21:00.696Z,96324.69
2022-09-12T08:23:29.452Z,96333.75
2022-09-12T08:25:58.084Z,96329.72
2022-09-12T08:28:26.531Z,96333.28
2022-09-12T08:30:54.945Z,96330.63
2022-09-12T08:33:27.263Z,96336.19
2022-09-12T08:35:54.985Z,96327.59
2022-09-12T08:38:23.734Z,96332.38
2022-09-12T08:40:59.244Z,96331.47
2022-09-12T08:43:40.483Z,96331.03
2022-09-12T08:46:13.706Z,96342.94
2022-09-12T08:48:46.549Z,96332.34
2022-09-12T08:51:18.444Z,96335.91
2022-09-12T08:53:48.419Z,96336.31
2022-09-12T08:56:16.706Z,96338.66
2022-09-12T08:58:47.012Z,96337.81
2022-09-12T09:01:25.210Z,96336.59
2022-09-12T09:04:10.681Z,96341.84
2022-09-12T09:07:06.165Z,96342.63
2022-09-12T09:09:47.396Z,96339.06
2022-09-12T09:12:23.343Z,96335.50
2022-09-12T09:15:05.243Z,96337.25
2022-09-12T09:17:36.887Z,96335.97
2022-09-12T09:20:13.436Z,96330.78
2022-09-12T09:22:45.970Z,96332.56
2022-09-12T09:25:22.915Z,96330.78
2022-09-12T09:27:58.361Z,96342.38
2022-09-12T09:30:26.117Z,96334.72
2022-09-12T09:32:58.370Z,96334.47
2022-09-12T09:35:39.465Z,96333.88
2022-09-12T09:38:23.223Z,96341.53
2022-09-12T09:41:01.351Z,96339.38
2022-09-12T09:43:29.376Z,96329.34
2022-09-12T09:45:59.384Z,96333.38
2022-09-12T09:48:30.801Z,96336.31
2022-09-12T09:51:02.408Z,96343.09
2022-09-12T09:53:39.561Z,96332.22
2022-09-12T09:56:13.781Z,96316.19
2022-09-12T09:58:42.076Z,96317.13
2022-09-12T10:01:17.024Z,96320.41
2022-09-12T10:03:51.304Z,96313.81
2022-09-12T10:06:32.749Z,96317.44
2022-09-12T10:09:18.726Z,96311.56
2022-09-12T10:11:48.087Z,96320.31
2022-09-12T10:14:35.053Z,96316.44
2022-09-12T10:17:04.884Z,96312.94
2022-09-12T10:19:37.845Z,96318.09
2022-09-12T10:22:15.033Z,96311.44
2022-09-12T10:24:48.735Z,96313.41
2022-09-12T10:27:20.209Z,96307.84
2022-09-12T10:29:51.837Z,96306.59
2022-09-12T10:32:30.994Z,96308.44
2022-09-12T10:35:02.674Z,96309.91
2022-09-12T10:37:34.481Z,96314.91
2022-09-12T10:40:04.321Z,96312.91
2022-09-12T10:42:50.343Z,96297.16
2022-09-12T10:45:24.712Z,96290.78
2022-09-12T10:47:53.295Z,96279.97
2022-09-12T10:50:26.081Z,96283.19
2022-09-12T10:52:55.372Z,96283.94
2022-09-12T10:55:30.881Z,96282.38
2022-09-12T10:58:13.073Z,96278.38
2022-09-12T11:00:46.699Z,96265.44
2022-09-12T11:03:24.742Z,96274.06
2022-09-12T11:05:59.844Z,96270.66
2022-09-12T11:08:53.459Z,96268.47
2022-09-12T11:11:44.721Z,96263.91
2022-09-12T11:14:29.011Z,96272.56
2022-09-12T11:17:04.852Z,96260.38
2022-09-12T11:19:47.386Z,96266.34
2022-09-12T11:22:31.850Z,96260.75
2022-09-12T11:25:29.785Z,96262.38
2022-09-12T11:28:25.207Z,96265.03
2022-09-12T11:31:14.184Z,96260.91
2022-09-12T11:33:44.932Z,96260.84
2022-09-12T11:36:24.675Z,96261.72
2022-09-12T11:38:58.379Z,96264.41
2022-09-12T11:41:33.731Z,96264.53
2022-09-12T11:44:10.231Z,96261.91
2022-09-12T11:46:40.134Z,96259.94
2022-09-12T11:49:21.137Z,96263.69
2022-09-12T11:51:53.735Z,96260.16
2022-09-12T11:54:27.055Z,96253.09
2022-09-12T11:57:05.032Z,96250.13
2022-09-12T11:59:41.453Z,96260.94
2022-09-12T12:02:15.543Z,96264.53
2022-09-12T12:04:57.067Z,96256.88
2022-09-12T12:07:24.956Z,96261.13
2022-09-12T12:09:54.683Z,96249.50
2022-09-12T12:12:28.470Z,96250.09
2022-09-12T12:14:58.871Z,96255.13
2022-09-12T12:17:29.584Z,96251.06
2022-09-12T12:20:05.595Z,96249.50
2022-09-12T12:22:34.920Z,96237.66
2022-09-12T12:25:09.340Z,96240.44
2022-09-12T12:27:51.388Z,96233.50
2022-09-12T12:31:05.600Z,96223.13
2022-09-12T12:34:01.203Z,96220.50
2022-09-12T12:36:40.994Z,96223.47
2022-09-12T12:39:55.539Z,96224.41
2022-09-12T12:43:03.687Z,96213.78
2022-09-12T12:46:00.407Z,96208.22
2022-09-12T12:48:34.120Z,96204.16
2022-09-12T12:51:39.152Z,96193.28
2022-09-12T12:54:26.006Z,96199.56
2022-09-12T12:57:02.166Z,96193.75
2022-09-12T12:59:30.697Z,96191.94
2022-09-12T13:02:01.706Z,96197.84
2022-09-12T13:04:33.949Z,96192.31
2022-09-12T13:07:08.230Z,96187.25
2022-09-12T13:09:40.531Z,96182.47
2022-09-12T13:12:12.411Z,96180.34
2022-09-12T13:14:52.572Z,96177.34
2022-09-12T13:17:26.648Z,96178.47
2022-09-12T13:20:26.830Z,96180.50
2022-09-12T13:22:53.910Z,96178.22
2022-09-12T13:25:26.472Z,96172.28
2022-09-12T13:27:59.159Z,96158.94
2022-09-12T13:30:28.420Z,96156.41
2022-09-12T13:33:00.115Z,96156.50
2022-09-12T13:35:41.107Z,96150.13
2022-09-12T13:38:17.618Z,96155.72
2022-09-12T13:41:05.731Z,96143.22
2022-09-12T13:43:41.196Z,96145.66
2022-09-12T13:46:13.872Z,96149.59
2022-09-12T13:48:43.700Z,96136.22
2022-09-12T13:51:23.527Z,96142.38
2022-09-12T13:53:53.232Z,96150.81
2022-09-12T13:56:22.141Z,96151.59
2022-09-12T13:58:56.309Z,96145.75
2022-09-12T14:01:25.230Z,96146.44
2022-09-12T14:04:14.079Z,96143.13
2022-09-12T14:06:49.463Z,96136.97
2022-09-12T14:09:25.169Z,96135.53
2022-09-12T14:11:53.976Z,96137.78
2022-09-12T14:14:31.405Z,96138.22
2022-09-12T14:17:00.158Z,96135.09
2022-09-12T14:19:30.084Z,96133.28
2022-09-12T14:21:58.405Z,96127.13
2022-09-12T14:24:26.547Z,96129.69
2022-09-12T14:26:56.684Z,96123.31
2022-09-12T14:29:26.033Z,96124.06
2022-09-12T14:32:04.586Z,96120.06
2022-09-12T14:34:33.685Z,96119.66
2022-09-12T14:37:07.409Z,96122.91
2022-09-12T14:39:40.652Z,96127.81
2022-09-12T14:42:14.249Z,96114.63
2022-09-12T14:44:53.324Z,96116.25
2022-09-12T14:47:23.147Z,96110.44
2022-09-12T14:49:52.648Z,96117.34
2022-09-12T14:52:27.617Z,96111.03
2022-09-12T14:54:59.983Z,96103.56
2022-09-12T14:57:38.831Z,96102.47
2022-09-12T15:00:17.778Z,96097.22
2022-09-12T15:02:45.846Z,96096.59
2022-09-12T15:05:21.570Z,96097.44
2022-09-12T15:07:55.912Z,96084.50
2022-09-12T15:10:27.552Z,96094.38
2022-09-12T15:13:14.144Z,96086.56
2022-09-12T15:15:43.777Z,96084.53
2022-09-12T15:18:12.024Z,96083.13
2022-09-12T15:20:42.950Z,96074.22
2022-09-12T15:23:18.275Z,96077.69
2022-09-12T15:25:46.117Z,96068.56
2022-09-12T15:28:19.611Z,96064.63
2022-09-12T15:30:49.542Z,96065.53
2022-09-12T15:33:17.599Z,96058.03
2022-09-12T15:35:47.102Z,96070.41
2022-09-12T15:38:14.750Z,96070.84
2022-09-12T15:40:42.547Z,96070.59
2022-09-12T15:43:13.273Z,96063.94
2022-09-12T15:45:44.466Z,96063.56
2022-09-12T15:48:13.579Z,96071.91
2022-09-12T15:50:42.988Z,96069.19
2022-09-12T15:53:15.946Z,96066.50
2022-09-12T15:55:44.118Z,96063.41
2022-09-12T15:58:11.923Z,96062.69
2022-09-12T16:00:40.035Z,96067.44
2022-09-12T16:03:08.497Z,96058.03
2022-09-12T16:05:36.621Z,96059.66
2022-09-12T16:08:04.537Z,96057.31
2022-09-12T16:10:33.568Z,96055.75
2022-09-12T16:13:01.242Z,96064.84
2022-09-12T16:15:28.912Z,96060.16
2022-09-12T16:17:56.668Z,96051.91
2022-09-12T16:20:24.330Z,96051.88
2022-09-12T16:22:51.995Z,96058.94
2022-09-12T16:25:19.743Z,96052.63
2022-09-12T16:27:48.874Z,96058.91
2022-09-12T16:30:16.708Z,96056.91
2022-09-12T16:32:44.377Z,96047.06
2022-09-12T16:35:12.218Z,96041.53
2022-09-12T16:37:40.017Z,96032.84
2022-09-12T16:40:09.357Z,96033.59
2022-09-12T16:42:41.803Z,96032.78
2022-09-12T16:45:13.459Z,96035.84
2022-09-12T16:47:41.255Z,96038.16
2022-09-12T16:50:11.727Z,96034.53
2022-09-12T16:52:39.392Z,96027.75
2022-09-12T16:55:07.897Z,96028.47
2022-09-12T16:57:35.644Z,96031.91
2022-09-12T17:00:04.163Z,96027.94
2022-09-12T17:02:33.243Z,96022.00
2022-09-12T17:05:00.991Z,96028.19
2022-09-12T17:07:28.647Z,96034.44
2022-09-12T17:09:57.064Z,96029.59
2022-09-12T17:12:25.033Z,96023.88
2022-09-12T17:14:52.746Z,96029.22
2022-09-12T17:17:20.592Z,96037.28
2022-09-12T17:19:49.886Z,96034.31
2022-09-12T17:22:17.670Z,96036.13
2022-09-12T17:24:45.346Z,96033.28
2022-09-12T17:27:13.170Z,96035.59
2022-09-12T17:29:41.779Z,96029.63
2022-09-12T17:32:09.455Z,96035.31
2022-09-12T17:34:37.140Z,96025.28
2022-09-12T17:37:06.304Z,96022.09
2022-09-12T17:39:33.997Z,96018.00
2022-09-12T17:42:01.666Z,96020.53
2022-09-12T17:44:30.307Z,96013.44
2022-09-12T17:46:57.959Z,96019.97
2022-09-12T17:49:25.837Z,96021.38
2022-09-12T17:51:56.054Z,96016.00
2022-09-12T17:54:25.096Z,96026.59
2022-09-12T17:56:52.812Z,96022.38
2022-09-12T17:59:24.257Z,96028.00
2022-09-12T18:02:09.383Z,96025.78
2022-09-12T18:04:37.378Z,96032.41
2022-09-12T18:07:05.928Z,96036.72
2022-09-12T18:09:36.206Z,96032.28
2022-09-12T18:12:04.111Z,96030.41
2022-09-12T18:14:31.879Z,96035.00
2022-09-12T18:17:00.197Z,96030.09
2022-09-12T18:19:28.658Z,96033.41
2022-09-12T18:21:56.798Z,96026.66
2022-09-12T18:24:24.898Z,96023.06
2022-09-12T18:26:56.516Z,96025.28
2022-09-12T18:29:24.381Z,96021.22
2022-09-12T18:31:52.219Z,96030.56
2022-09-12T18:34:20.324Z,96028.97
2022-09-12T18:36:49.893Z,96037.47
2022-09-12T18:39:18.424Z,96038.31
2022-09-12T18:41:46.364Z,96036.63
2022-09-12T18:44:15.383Z,96037.59
2022-09-12T18:46:43.136Z,96038.75
2022-09-12T18:49:10.826Z,96036.47
2022-09-12T18:51:41.555Z,96041.59
2022-09-12T18:54:14.143Z,96049.72
2022-09-12T18:56:43.860Z,96054.91
2022-09-12T18:59:14.236Z,96049.72
2022-09-12T19:01:43.938Z,96055.44
2022-09-12T19:04:13.571Z,96062.91
2022-09-12T19:06:42.756Z,96061.66
2022-09-12T19:09:12.249Z,96055.69
2022-09-12T19:11:42.474Z,96054.91
2022-09-12T19:14:10.139Z,96051.66
2022-09-12T19:16:37.931Z,96048.03
2022-09-12T19:19:07.121Z,96049.09
2022-09-12T19:21:36.377Z,96053.28
2022-09-12T19:24:06.875Z,96058.22
2022-09-12T19:26:34.770Z,96053.91
2022-09-12T19:29:03.143Z,96057.41
2022-09-12T19:31:32.041Z,96058.47
2022-09-12T19:34:01.778Z,96055.63
2022-09-12T19:36:45.007Z,96051.69
2022-09-12T19:39:13.563Z,96047.97
2022-09-12T19:41:41.247Z,96051.19
2022-09-12T19:44:09.148Z,96048.91
2022-09-12T19:46:37.011Z,96053.81
2022-09-12T19:49:04.762Z,96058.47
2022-09-12T19:51:34.039Z,96056.78
2022-09-12T19:54:01.776Z,96053.84
2022-09-12T19:56:29.446Z,96059.28
2022-09-12T19:58:57.138Z,96051.84
2022-09-12T20:01:28.169Z,96048.22
2022-09-12T20:03:56.842Z,96042.00
2022-09-12T20:06:25.007Z,96048.56
2022-09-12T20:08:54.063Z,96047.31
2022-09-12T20:11:23.724Z,96044.84
2022-09-12T20:13:52.128Z,96034.31
2022-09-12T20:16:22.740Z,96037.06
2022-09-12T20:18:54.738Z,96038.97
2022-09-12T20:21:25.197Z,96037.28
2022-09-12T20:23:54.486Z,96031.03
2022-09-12T20:26:24.827Z,96034.19
2022-09-12T20:28:52.586Z,96034.34
2022-09-12T20:31:20.342Z,96038.00
2022-09-12T20:33:51.827Z,96035.28
2022-09-12T20:36:21.374Z,96033.00
2022-09-12T20:38:50.824Z,96032.56
2022-09-12T20:41:21.187Z,96040.94
2022-09-12T20:43:50.992Z,96034.13
2022-09-12T20:46:22.018Z,96035.75
2022-09-12T20:48:50.546Z,96034.19
2022-09-12T20:51:18.543Z,96032.13
2022-09-12T20:53:46.392Z,96034.28
2022-09-12T20:56:14.943Z,96032.25
2022-09-12T20:58:44.928Z,96027.94
2022-09-12T21:01:15.910Z,96030.00
2022-09-12T21:03:45.377Z,96034.16
2022-09-12T21:06:14.478Z,96027.28
2022-09-12T21:08:42.171Z,96035.41
2022-09-12T21:11:10.452Z,96031.34
2022-09-12T21:13:38.883Z,96037.81
2022-09-12T21:16:11.417Z,96033.16
2022-09-12T21:18:39.221Z,96036.31
2022-09-12T21:21:07.671Z,96034.06
2022-09-12T21:23:35.590Z,96034.19
2022-09-12T21:26:03.853Z,96033.84
2022-09-12T21:28:31.807Z,96032.25
2022-09-12T21:31:00.086Z,96026.69
2022-09-12T21:33:29.197Z,96034.72
2022-09-12T21:36:01.659Z,96034.16
2022-09-12T21:38:30.415Z,96030.91
2022-09-12T21:41:04.597Z,96033.25
2022-09-12T21:43:32.470Z,96040.25
2022-09-12T21:46:00.626Z,96030.31
2022-09-12T21:48:30.051Z,96036.41
2022-09-12T21:50:57.718Z,96036.38
